Wichita Mid Continent Airport
KICT : now visible

Aeroporto :











RITROVATECI SU...

 
LOGIN :

Iscrizione | Disclaimer

   EN    FR    IT 

 









Sommario :    VFR   VFR Marginale   IFR   IFR Intensivo   IFR Molto Intensivo
Visibilità : 
Base nubi : 
>= 8 km
>= 3000ft
5 / 8 km
1000 / 3000 ft
1500m / 5 km
500 / 1000 ft
800 / 1500m
200 / 500 ft
< 800m
< 200 ft
Simboli :   Temporali  Nebbia  Neve Forte  Precipitazioni Forti  Vento > 20 kt






- Altitudine del aeroporto : 1333 ft
- Codice IATA : ICT


KICT - Wichita Mid Continent

ULTIMO METAR :
  • 110653Z 21023G29KT 10SM BKN095 BKN110 BKN140 OVC170 26/15 A2987 RMK AO2 PK WND 25031/0638 RAE39 SLP098 CB DSIPTD P0000 T02560150

METARs OBSOLETI :
  • 110553Z 20016KT 10SM -RA BKN110 BKN150 OVC170 23/17 A2996 RMK AO2 TSE10 PRESFR SLP127 OCNL LTGICCCCG DSNT SE CB DSNT SE MOV E TS MOVD E P0008 60065 T02330167 10289 20217 403220217 58010
  • 110516Z 25005KT 7SM -RA SCT090 BKN120 OVC140 22/18 A3001 RMK AO2 TSE10 OCNL LTGICCCCG DSNT SE CB DSNT SE MOV E TS MOVD E P0006 T02170183
  • 110453Z 26012KT 9SM TSRA FEW040CB SCT080 BKN090 OVC130 22/18 A3001 RMK AO2 PK WND 26026/0440 PRESRR SLP150 OCNL LTGICCCCG VC S-SW TS VC S-SW MOV E P0003 T02220178

TAF KICT
Valido dal 11 a 06 ore il 12 a 06 ore UTC


110522Z 1106/1206 VRB05G15KT P6SM -TSRA SCT040 OVC100CB
FM110700 13008KT P6SM VCSH FEW030 SCT100 BKN200
FM111200 12006KT P6SM SCT015 BKN100
FM111700 14010KT P6SM SCT040
FM120000 12007KT P6SM SCT200
FIR KZKC / America del Nord



MetMap, La meteo Aeronautica in un colpo d'occhio ! - Copyright ORBIFLY Dicembre 2007 - Disclaimer

ORBIFLY MET'MAP TEAM :

Programmazione e sviluppo : Alexandra Zaïnal
Concezione : Baudouin d'Aumeries
Aiuto per la programmazione : Marc-Olivier Méhu
Supporto tecnico e logistico : Manuel Goepfert
Aiuto per la traduzione : Arnaldo La Scala

Contatto : metmap@orbifly.com




FONTI E CREDITI :

   NOAA       Earth
Advisory